sensor_id;sensor_type;location;lat;lon;timestamp;pressure;altitude;pressure_sealevel;temperature;humidity
56182;BME280;51963;46.052;14.544;2023-01-29T00:00:38;98982.19;;;0.49;100.00
56182;BME280;51963;46.052;14.544;2023-01-29T00:03:04;98987.78;;;0.55;100.00
56182;BME280;51963;46.052;14.544;2023-01-29T00:05:30;98980.09;;;0.78;100.00
56182;BME280;51963;46.052;14.544;2023-01-29T00:07:55;98987.63;;;0.70;100.00
56182;BME280;51963;46.052;14.544;2023-01-29T00:10:22;98986.00;;;0.56;100.00
56182;BME280;51963;46.052;14.544;2023-01-29T00:12:48;98988.13;;;0.51;100.00
56182;BME280;51963;46.052;14.544;2023-01-29T00:15:13;98994.25;;;0.50;100.00
56182;BME280;51963;46.052;14.544;2023-01-29T00:17:39;98985.38;;;0.52;100.00
56182;BME280;51963;46.052;14.544;2023-01-29T00:20:04;98984.94;;;0.71;100.00
56182;BME280;51963;46.052;14.544;2023-01-29T00:22:30;98987.16;;;0.89;100.00
56182;BME280;51963;46.052;14.544;2023-01-29T00:24:55;98987.16;;;0.89;100.00
56182;BME280;51963;46.052;14.544;2023-01-29T00:27:21;98993.69;;;0.95;100.00
56182;BME280;51963;46.052;14.544;2023-01-29T00:29:46;98987.97;;;0.90;100.00
56182;BME280;51963;46.052;14.544;2023-01-29T00:32:32;98992.72;;;0.96;100.00
56182;BME280;51963;46.052;14.544;2023-01-29T00:34:57;98991.34;;;0.79;100.00
56182;BME280;51963;46.052;14.544;2023-01-29T00:37:23;98981.81;;;0.66;100.00
56182;BME280;51963;46.052;14.544;2023-01-29T00:39:48;98987.25;;;0.63;100.00
56182;BME280;51963;46.052;14.544;2023-01-29T00:42:14;98989.13;;;0.61;100.00
56182;BME280;51963;46.052;14.544;2023-01-29T00:44:58;98993.81;;;0.56;100.00
56182;BME280;51963;46.052;14.544;2023-01-29T00:47:24;98992.47;;;0.50;100.00
56182;BME280;51963;46.052;14.544;2023-01-29T00:49:58;98998.72;;;0.48;100.00
56182;BME280;51963;46.052;14.544;2023-01-29T00:52:24;98994.47;;;0.47;100.00
56182;BME280;51963;46.052;14.544;2023-01-29T00:54:53;98995.94;;;0.75;100.00
56182;BME280;51963;46.052;14.544;2023-01-29T00:57:19;99002.22;;;0.72;100.00
56182;BME280;51963;46.052;14.544;2023-01-29T00:59:45;99007.78;;;0.55;100.00
56182;BME280;51963;46.052;14.544;2023-01-29T01:02:10;99002.00;;;0.76;100.00
56182;BME280;51963;46.052;14.544;2023-01-29T01:04:55;99005.75;;;0.71;100.00
56182;BME280;51963;46.052;14.544;2023-01-29T01:07:22;99010.44;;;0.66;100.00
56182;BME280;51963;46.052;14.544;2023-01-29T01:09:48;99007.41;;;0.72;100.00
56182;BME280;51963;46.052;14.544;2023-01-29T01:12:33;99007.47;;;0.84;100.00
56182;BME280;51963;46.052;14.544;2023-01-29T01:14:58;99011.13;;;0.81;100.00
56182;BME280;51963;46.052;14.544;2023-01-29T01:17:24;98999.97;;;0.79;100.00
56182;BME280;51963;46.052;14.544;2023-01-29T01:19:49;99000.66;;;0.94;100.00
56182;BME280;51963;46.052;14.544;2023-01-29T01:22:16;99008.41;;;0.83;100.00
56182;BME280;51963;46.052;14.544;2023-01-29T01:24:42;99011.81;;;0.96;100.00
56182;BME280;51963;46.052;14.544;2023-01-29T01:27:08;99013.34;;;0.75;100.00
56182;BME280;51963;46.052;14.544;2023-01-29T01:29:33;99019.47;;;0.73;100.00
56182;BME280;51963;46.052;14.544;2023-01-29T01:31:59;99006.53;;;0.85;100.00
56182;BME280;51963;46.052;14.544;2023-01-29T01:34:25;99017.81;;;0.72;100.00
56182;BME280;51963;46.052;14.544;2023-01-29T01:36:52;99014.22;;;0.86;100.00
56182;BME280;51963;46.052;14.544;2023-01-29T01:39:17;99013.13;;;0.78;100.00
56182;BME280;51963;46.052;14.544;2023-01-29T01:41:43;99019.88;;;0.80;100.00
56182;BME280;51963;46.052;14.544;2023-01-29T01:46:53;99021.16;;;0.75;100.00
56182;BME280;51963;46.052;14.544;2023-01-29T01:49:19;99023.03;;;0.72;100.00
56182;BME280;51963;46.052;14.544;2023-01-29T01:51:47;99019.34;;;0.51;100.00
56182;BME280;51963;46.052;14.544;2023-01-29T01:54:24;99018.19;;;0.55;100.00
56182;BME280;51963;46.052;14.544;2023-01-29T01:56:52;99025.22;;;0.66;100.00
56182;BME280;51963;46.052;14.544;2023-01-29T01:59:20;99015.78;;;0.89;100.00
56182;BME280;51963;46.052;14.544;2023-01-29T02:01:48;99015.72;;;1.02;100.00
56182;BME280;51963;46.052;14.544;2023-01-29T02:04:24;99012.75;;;0.95;100.00
56182;BME280;51963;46.052;14.544;2023-01-29T02:07:10;99011.38;;;1.02;100.00
56182;BME280;51963;46.052;14.544;2023-01-29T02:09:59;99014.44;;;0.83;100.00
56182;BME280;51963;46.052;14.544;2023-01-29T02:12:25;99011.25;;;1.04;100.00
56182;BME280;51963;46.052;14.544;2023-01-29T02:14:53;99012.91;;;1.05;100.00
56182;BME280;51963;46.052;14.544;2023-01-29T02:17:18;99018.97;;;1.06;100.00
56182;BME280;51963;46.052;14.544;2023-01-29T02:22:19;99020.28;;;0.87;100.00
56182;BME280;51963;46.052;14.544;2023-01-29T02:27:18;99027.00;;;0.65;100.00
56182;BME280;51963;46.052;14.544;2023-01-29T02:37:30;99038.50;;;0.87;100.00
56182;BME280;51963;46.052;14.544;2023-01-29T02:40:11;99035.91;;;0.74;100.00
56182;BME280;51963;46.052;14.544;2023-01-29T02:42:40;99034.41;;;0.96;100.00
56182;BME280;51963;46.052;14.544;2023-01-29T02:45:20;99029.84;;;0.86;100.00
56182;BME280;51963;46.052;14.544;2023-01-29T02:47:47;99031.00;;;0.82;100.00
56182;BME280;51963;46.052;14.544;2023-01-29T02:58:10;99041.09;;;0.87;100.00
56182;BME280;51963;46.052;14.544;2023-01-29T03:00:39;99044.88;;;0.83;100.00
56182;BME280;51963;46.052;14.544;2023-01-29T03:03:39;99043.13;;;0.70;100.00
56182;BME280;51963;46.052;14.544;2023-01-29T03:06:02;99046.59;;;0.95;100.00
56182;BME280;51963;46.052;14.544;2023-01-29T03:08:39;99048.06;;;0.86;100.00
56182;BME280;51963;46.052;14.544;2023-01-29T03:11:10;99044.16;;;0.81;100.00
56182;BME280;51963;46.052;14.544;2023-01-29T03:19:35;99055.72;;;0.64;100.00
56182;BME280;51963;46.052;14.544;2023-01-29T03:21:49;99068.16;;;0.84;100.00
56182;BME280;51963;46.052;14.544;2023-01-29T03:24:23;99064.03;;;0.82;100.00
56182;BME280;51963;46.052;14.544;2023-01-29T03:27:10;99071.91;;;0.93;100.00
56182;BME280;51963;46.052;14.544;2023-01-29T03:29:55;99069.09;;;0.96;100.00
56182;BME280;51963;46.052;14.544;2023-01-29T03:33:05;99061.22;;;0.72;100.00
56182;BME280;51963;46.052;14.544;2023-01-29T03:35:37;99059.19;;;0.64;100.00
56182;BME280;51963;46.052;14.544;2023-01-29T03:38:06;99062.38;;;0.81;100.00
56182;BME280;51963;46.052;14.544;2023-01-29T03:40:45;99055.28;;;0.70;100.00
56182;BME280;51963;46.052;14.544;2023-01-29T03:43:31;99063.16;;;0.94;100.00
56182;BME280;51963;46.052;14.544;2023-01-29T03:46:09;99067.50;;;1.07;100.00
56182;BME280;51963;46.052;14.544;2023-01-29T03:56:56;99049.91;;;0.60;100.00
56182;BME280;51963;46.052;14.544;2023-01-29T04:02:29;99063.88;;;0.59;100.00
56182;BME280;51963;46.052;14.544;2023-01-29T04:05:01;99062.88;;;0.86;100.00
56182;BME280;51963;46.052;14.544;2023-01-29T04:07:30;99061.28;;;0.96;100.00
56182;BME280;51963;46.052;14.544;2023-01-29T04:10:08;99066.72;;;0.93;100.00
56182;BME280;51963;46.052;14.544;2023-01-29T04:12:40;99056.22;;;1.06;100.00
56182;BME280;51963;46.052;14.544;2023-01-29T04:15:08;99067.50;;;1.07;100.00
56182;BME280;51963;46.052;14.544;2023-01-29T04:17:38;99061.63;;;1.16;100.00
56182;BME280;51963;46.052;14.544;2023-01-29T04:20:14;99066.19;;;0.88;100.00
56182;BME280;51963;46.052;14.544;2023-01-29T04:22:41;99052.81;;;1.06;100.00
56182;BME280;51963;46.052;14.544;2023-01-29T04:25:10;99060.72;;;1.04;100.00
56182;BME280;51963;46.052;14.544;2023-01-29T04:38:31;99068.06;;;0.86;100.00
56182;BME280;51963;46.052;14.544;2023-01-29T04:41:04;99067.13;;;0.87;100.00
56182;BME280;51963;46.052;14.544;2023-01-29T04:43:37;99062.44;;;1.16;100.00
56182;BME280;51963;46.052;14.544;2023-01-29T04:46:10;99066.00;;;1.15;100.00
56182;BME280;51963;46.052;14.544;2023-01-29T04:48:43;99071.25;;;1.27;100.00
56182;BME280;51963;46.052;14.544;2023-01-29T04:51:15;99057.19;;;1.29;100.00
56182;BME280;51963;46.052;14.544;2023-01-29T04:53:47;99060.25;;;1.23;100.00
56182;BME280;51963;46.052;14.544;2023-01-29T04:56:19;99061.72;;;0.90;100.00
56182;BME280;51963;46.052;14.544;2023-01-29T04:58:51;99055.41;;;0.68;100.00
56182;BME280;51963;46.052;14.544;2023-01-29T05:01:20;99061.63;;;0.79;100.00
56182;BME280;51963;46.052;14.544;2023-01-29T05:03:50;99060.69;;;0.80;100.00
56182;BME280;51963;46.052;14.544;2023-01-29T05:06:19;99059.03;;;0.79;100.00
56182;BME280;51963;46.052;14.544;2023-01-29T05:08:45;99058.25;;;0.65;100.00
56182;BME280;51963;46.052;14.544;2023-01-29T05:11:11;99060.19;;;0.62;100.00
56182;BME280;51963;46.052;14.544;2023-01-29T05:13:38;99053.66;;;0.56;100.00
56182;BME280;51963;46.052;14.544;2023-01-29T05:18:31;99051.72;;;0.47;100.00
56182;BME280;51963;46.052;14.544;2023-01-29T05:20:58;99056.34;;;0.67;100.00
56182;BME280;51963;46.052;14.544;2023-01-29T05:23:27;99054.34;;;0.71;100.00
56182;BME280;51963;46.052;14.544;2023-01-29T05:25:52;99062.75;;;0.87;100.00
56182;BME280;51963;46.052;14.544;2023-01-29T05:28:19;99067.66;;;0.92;100.00
56182;BME280;51963;46.052;14.544;2023-01-29T05:30:45;99062.06;;;1.10;100.00
56182;BME280;51963;46.052;14.544;2023-01-29T05:35:37;99073.50;;;0.83;100.00
56182;BME280;51963;46.052;14.544;2023-01-29T05:38:02;99080.44;;;0.95;100.00
56182;BME280;51963;46.052;14.544;2023-01-29T05:40:28;99076.69;;;0.99;100.00
56182;BME280;51963;46.052;14.544;2023-01-29T05:42:53;99079.00;;;0.91;100.00
56182;BME280;51963;46.052;14.544;2023-01-29T05:45:18;99071.41;;;0.88;100.00
56182;BME280;51963;46.052;14.544;2023-01-29T05:47:45;99070.69;;;0.86;100.00
56182;BME280;51963;46.052;14.544;2023-01-29T05:50:11;99077.66;;;0.85;100.00
56182;BME280;51963;46.052;14.544;2023-01-29T05:52:36;99081.09;;;0.86;100.00
56182;BME280;51963;46.052;14.544;2023-01-29T05:55:02;99077.78;;;0.84;100.00
56182;BME280;51963;46.052;14.544;2023-01-29T05:57:27;99083.94;;;1.07;100.00
56182;BME280;51963;46.052;14.544;2023-01-29T05:59:53;99076.63;;;1.12;100.00
56182;BME280;51963;46.052;14.544;2023-01-29T06:02:18;99090.72;;;1.10;100.00
56182;BME280;51963;46.052;14.544;2023-01-29T06:04:45;99089.78;;;1.11;100.00
56182;BME280;51963;46.052;14.544;2023-01-29T06:07:10;99096.28;;;0.92;100.00
56182;BME280;51963;46.052;14.544;2023-01-29T06:09:36;99101.28;;;0.95;100.00
56182;BME280;51963;46.052;14.544;2023-01-29T06:12:02;99102.94;;;0.96;100.00
56182;BME280;51963;46.052;14.544;2023-01-29T06:14:27;99103.38;;;0.90;100.00
56182;BME280;51963;46.052;14.544;2023-01-29T06:16:53;99108.56;;;0.90;100.00
56182;BME280;51963;46.052;14.544;2023-01-29T06:19:18;99103.81;;;0.84;100.00
56182;BME280;51963;46.052;14.544;2023-01-29T06:21:45;99104.53;;;0.86;100.00
56182;BME280;51963;46.052;14.544;2023-01-29T06:24:10;99101.59;;;0.91;100.00
56182;BME280;51963;46.052;14.544;2023-01-29T06:26:36;99113.66;;;1.05;100.00
56182;BME280;51963;46.052;14.544;2023-01-29T06:29:01;99107.06;;;1.12;100.00
56182;BME280;51963;46.052;14.544;2023-01-29T06:31:27;99108.94;;;1.10;100.00
56182;BME280;51963;46.052;14.544;2023-01-29T06:33:52;99111.19;;;0.90;100.00
56182;BME280;51963;46.052;14.544;2023-01-29T06:36:18;99110.69;;;0.85;100.00
56182;BME280;51963;46.052;14.544;2023-01-29T06:38:43;99118.28;;;0.88;100.00
56182;BME280;51963;46.052;14.544;2023-01-29T06:41:13;99109.53;;;0.89;100.00
56182;BME280;51963;46.052;14.544;2023-01-29T06:43:42;99129.63;;;0.87;100.00
56182;BME280;51963;46.052;14.544;2023-01-29T06:46:08;99128.78;;;0.86;100.00
56182;BME280;51963;46.052;14.544;2023-01-29T06:48:33;99129.19;;;0.93;100.00
56182;BME280;51963;46.052;14.544;2023-01-29T06:51:03;99147.22;;;0.96;100.00
56182;BME280;51963;46.052;14.544;2023-01-29T06:53:29;99139.81;;;0.90;100.00
56182;BME280;51963;46.052;14.544;2023-01-29T06:55:54;99135.72;;;0.99;100.00
56182;BME280;51963;46.052;14.544;2023-01-29T06:58:20;99132.53;;;0.95;100.00
56182;BME280;51963;46.052;14.544;2023-01-29T07:00:46;99136.06;;;0.94;100.00
56182;BME280;51963;46.052;14.544;2023-01-29T07:03:11;99144.81;;;0.93;100.00
56182;BME280;51963;46.052;14.544;2023-01-29T07:05:37;99137.59;;;0.97;100.00
56182;BME280;51963;46.052;14.544;2023-01-29T07:08:03;99142.50;;;1.01;100.00
56182;BME280;51963;46.052;14.544;2023-01-29T07:10:29;99144.75;;;1.19;100.00
56182;BME280;51963;46.052;14.544;2023-01-29T07:12:54;99146.00;;;1.26;100.00
56182;BME280;51963;46.052;14.544;2023-01-29T07:15:20;99150.34;;;1.39;100.00
56182;BME280;51963;46.052;14.544;2023-01-29T07:20:22;99156.75;;;1.46;100.00
56182;BME280;51963;46.052;14.544;2023-01-29T07:22:47;99158.28;;;1.61;100.00
56182;BME280;51963;46.052;14.544;2023-01-29T07:25:13;99157.53;;;1.59;100.00
56182;BME280;51963;46.052;14.544;2023-01-29T07:27:39;99157.31;;;1.63;100.00
56182;BME280;51963;46.052;14.544;2023-01-29T07:30:04;99163.97;;;1.67;100.00
56182;BME280;51963;46.052;14.544;2023-01-29T07:32:30;99162.25;;;1.79;100.00
56182;BME280;51963;46.052;14.544;2023-01-29T07:34:55;99159.00;;;1.64;100.00
56182;BME280;51963;46.052;14.544;2023-01-29T07:37:21;99160.09;;;1.48;100.00
56182;BME280;51963;46.052;14.544;2023-01-29T07:39:46;99162.41;;;1.40;100.00
56182;BME280;51963;46.052;14.544;2023-01-29T07:42:12;99167.13;;;1.35;100.00
56182;BME280;51963;46.052;14.544;2023-01-29T07:44:38;99175.16;;;1.31;100.00
56182;BME280;51963;46.052;14.544;2023-01-29T07:47:04;99173.72;;;1.27;100.00
56182;BME280;51963;46.052;14.544;2023-01-29T07:49:29;99163.31;;;1.14;100.00
56182;BME280;51963;46.052;14.544;2023-01-29T07:51:54;99171.25;;;1.00;100.00
56182;BME280;51963;46.052;14.544;2023-01-29T07:54:20;99173.34;;;0.95;100.00
56182;BME280;51963;46.052;14.544;2023-01-29T07:56:46;99171.97;;;1.15;100.00
56182;BME280;51963;46.052;14.544;2023-01-29T07:59:11;99164.59;;;1.09;100.00
56182;BME280;51963;46.052;14.544;2023-01-29T08:01:37;99168.56;;;1.01;100.00
56182;BME280;51963;46.052;14.544;2023-01-29T08:04:02;99164.59;;;1.46;100.00
56182;BME280;51963;46.052;14.544;2023-01-29T08:06:28;99163.53;;;1.73;100.00
56182;BME280;51963;46.052;14.544;2023-01-29T08:08:53;99159.59;;;1.67;100.00
56182;BME280;51963;46.052;14.544;2023-01-29T08:11:19;99157.81;;;1.68;100.00
56182;BME280;51963;46.052;14.544;2023-01-29T08:13:45;99172.81;;;1.77;100.00
56182;BME280;51963;46.052;14.544;2023-01-29T08:16:11;99170.84;;;1.68;100.00
56182;BME280;51963;46.052;14.544;2023-01-29T08:18:36;99169.78;;;1.95;100.00
56182;BME280;51963;46.052;14.544;2023-01-29T08:21:02;99169.44;;;1.99;100.00
56182;BME280;51963;46.052;14.544;2023-01-29T08:23:28;99158.84;;;2.25;100.00
56182;BME280;51963;46.052;14.544;2023-01-29T08:25:54;99168.47;;;2.25;100.00
56182;BME280;51963;46.052;14.544;2023-01-29T08:28:19;99161.31;;;2.15;100.00
56182;BME280;51963;46.052;14.544;2023-01-29T08:30:45;99157.28;;;2.11;100.00
56182;BME280;51963;46.052;14.544;2023-01-29T08:33:10;99159.53;;;2.16;100.00
56182;BME280;51963;46.052;14.544;2023-01-29T08:35:36;99159.41;;;2.06;100.00
56182;BME280;51963;46.052;14.544;2023-01-29T08:38:02;99159.66;;;2.14;100.00
56182;BME280;51963;46.052;14.544;2023-01-29T08:40:29;99153.53;;;2.27;100.00
56182;BME280;51963;46.052;14.544;2023-01-29T08:42:57;99167.25;;;2.17;100.00
56182;BME280;51963;46.052;14.544;2023-01-29T08:45:22;99162.94;;;2.05;99.19
56182;BME280;51963;46.052;14.544;2023-01-29T08:47:48;99160.00;;;2.10;100.00
56182;BME280;51963;46.052;14.544;2023-01-29T08:50:14;99149.97;;;2.28;98.61
56182;BME280;51963;46.052;14.544;2023-01-29T08:52:39;99152.81;;;2.25;98.66
56182;BME280;51963;46.052;14.544;2023-01-29T08:55:05;99149.31;;;2.13;99.95
56182;BME280;51963;46.052;14.544;2023-01-29T08:57:30;99158.59;;;2.17;99.86
56182;BME280;51963;46.052;14.544;2023-01-29T08:59:56;99150.47;;;2.33;98.95
56182;BME280;51963;46.052;14.544;2023-01-29T09:02:22;99143.06;;;2.15;99.95
56182;BME280;51963;46.052;14.544;2023-01-29T09:04:47;99150.91;;;2.27;98.96
56182;BME280;51963;46.052;14.544;2023-01-29T09:07:13;99147.59;;;2.25;98.49
56182;BME280;51963;46.052;14.544;2023-01-29T09:09:38;99148.53;;;2.24;99.57
56182;BME280;51963;46.052;14.544;2023-01-29T09:12:04;99149.03;;;2.29;99.34
56182;BME280;51963;46.052;14.544;2023-01-29T09:14:29;99151.88;;;2.26;97.42
56182;BME280;51963;46.052;14.544;2023-01-29T09:16:55;99152.81;;;2.25;97.71
56182;BME280;51963;46.052;14.544;2023-01-29T09:19:21;99152.59;;;2.28;98.15
56182;BME280;51963;46.052;14.544;2023-01-29T09:21:46;99157.06;;;2.14;95.98
56182;BME280;51963;46.052;14.544;2023-01-29T09:24:13;99157.66;;;2.18;96.69
56182;BME280;51963;46.052;14.544;2023-01-29T09:26:39;99152.25;;;2.44;96.28
56182;BME280;51963;46.052;14.544;2023-01-29T09:29:05;99155.47;;;2.59;95.36
56182;BME280;51963;46.052;14.544;2023-01-29T09:31:30;99161.19;;;2.64;94.96
56182;BME280;51963;46.052;14.544;2023-01-29T09:33:56;99153.59;;;2.61;94.39
56182;BME280;51963;46.052;14.544;2023-01-29T09:36:21;99155.25;;;2.62;95.42
56182;BME280;51963;46.052;14.544;2023-01-29T09:38:47;99153.13;;;2.67;94.09
56182;BME280;51963;46.052;14.544;2023-01-29T09:43:46;99147.66;;;3.04;92.06
56182;BME280;51963;46.052;14.544;2023-01-29T09:46:17;99145.19;;;2.91;91.04
56182;BME280;51963;46.052;14.544;2023-01-29T09:48:44;99153.59;;;3.06;90.00
56182;BME280;51963;46.052;14.544;2023-01-29T09:51:17;99151.91;;;3.17;89.83
56182;BME280;51963;46.052;14.544;2023-01-29T09:56:33;99152.88;;;3.16;90.94
56182;BME280;51963;46.052;14.544;2023-01-29T09:58:59;99149.97;;;3.42;88.67
56182;BME280;51963;46.052;14.544;2023-01-29T10:01:32;99150.47;;;3.24;88.86
56182;BME280;51963;46.052;14.544;2023-01-29T10:14:18;99152.06;;;2.70;92.57
56182;BME280;51963;46.052;14.544;2023-01-29T10:26:47;99140.66;;;2.82;87.73
56182;BME280;51963;46.052;14.544;2023-01-29T10:29:15;99136.16;;;2.84;88.33
56182;BME280;51963;46.052;14.544;2023-01-29T10:31:42;99134.97;;;2.66;87.00
56182;BME280;51963;46.052;14.544;2023-01-29T10:36:43;99135.88;;;2.42;87.60
56182;BME280;51963;46.052;14.544;2023-01-29T10:39:18;99135.63;;;2.45;89.33
56182;BME280;51963;46.052;14.544;2023-01-29T10:55:00;99119.25;;;2.43;86.91
56182;BME280;51963;46.052;14.544;2023-01-29T11:00:22;99114.41;;;2.61;84.93
56182;BME280;51963;46.052;14.544;2023-01-29T11:02:49;99113.47;;;2.62;85.31
56182;BME280;51963;46.052;14.544;2023-01-29T11:07:53;99121.69;;;2.91;84.69
56182;BME280;51963;46.052;14.544;2023-01-29T11:10:22;99126.53;;;2.96;83.97
56182;BME280;51963;46.052;14.544;2023-01-29T11:12:48;99113.69;;;2.93;83.83
56182;BME280;51963;46.052;14.544;2023-01-29T11:15:19;99114.06;;;2.88;83.29
56182;BME280;51963;46.052;14.544;2023-01-29T11:20:31;99109.19;;;2.95;84.23
56182;BME280;51963;46.052;14.544;2023-01-29T11:22:57;99101.34;;;3.06;84.42
56182;BME280;51963;46.052;14.544;2023-01-29T11:25:23;99098.94;;;3.15;82.68
56182;BME280;51963;46.052;14.544;2023-01-29T11:27:55;99089.56;;;3.23;81.20
56182;BME280;51963;46.052;14.544;2023-01-29T11:30:25;99095.72;;;3.22;82.08
56182;BME280;51963;46.052;14.544;2023-01-29T11:33:37;99085.16;;;3.24;82.78
56182;BME280;51963;46.052;14.544;2023-01-29T11:35:37;99091.78;;;3.28;81.17
56182;BME280;51963;46.052;14.544;2023-01-29T11:38:07;99086.38;;;3.08;81.51
56182;BME280;51963;46.052;14.544;2023-01-29T11:40:39;99086.09;;;3.23;82.11
56182;BME280;51963;46.052;14.544;2023-01-29T11:45:44;99083.00;;;3.29;81.26
56182;BME280;51963;46.052;14.544;2023-01-29T11:48:17;99077.06;;;3.27;80.58
56182;BME280;51963;46.052;14.544;2023-01-29T11:50:49;99071.00;;;3.27;80.52
56182;BME280;51963;46.052;14.544;2023-01-29T11:53:21;99080.28;;;3.31;80.37
56182;BME280;51963;46.052;14.544;2023-01-29T11:55:47;99073.75;;;3.58;79.67
56182;BME280;51963;46.052;14.544;2023-01-29T11:58:24;99066.47;;;3.61;79.16
56182;BME280;51963;46.052;14.544;2023-01-29T12:00:51;99071.75;;;3.50;79.91
56182;BME280;51963;46.052;14.544;2023-01-29T12:03:36;99071.00;;;3.59;79.64
56182;BME280;51963;46.052;14.544;2023-01-29T12:06:13;99067.19;;;3.63;79.99
56182;BME280;51963;46.052;14.544;2023-01-29T12:08:41;99058.31;;;3.55;79.12
56182;BME280;51963;46.052;14.544;2023-01-29T12:11:14;99064.50;;;3.54;80.00
56182;BME280;51963;46.052;14.544;2023-01-29T12:13:52;99056.56;;;3.44;80.30
56182;BME280;51963;46.052;14.544;2023-01-29T12:18:45;99049.84;;;3.30;81.36
56182;BME280;51963;46.052;14.544;2023-01-29T12:21:17;99043.13;;;3.16;81.59
56182;BME280;51963;46.052;14.544;2023-01-29T12:23:51;99047.91;;;2.99;83.03
56182;BME280;51963;46.052;14.544;2023-01-29T12:26:23;99046.28;;;2.87;83.63
56182;BME280;51963;46.052;14.544;2023-01-29T12:33:48;99032.97;;;2.90;83.67
56182;BME280;51963;46.052;14.544;2023-01-29T12:36:30;99031.31;;;2.89;84.13
56182;BME280;51963;46.052;14.544;2023-01-29T12:38:57;99032.28;;;2.65;85.73
56182;BME280;51963;46.052;14.544;2023-01-29T12:43:57;99029.69;;;2.65;85.48
56182;BME280;51963;46.052;14.544;2023-01-29T12:46:42;99013.06;;;2.77;84.97
56182;BME280;51963;46.052;14.544;2023-01-29T12:49:12;99017.31;;;2.78;85.05
56182;BME280;51963;46.052;14.544;2023-01-29T12:51:41;99005.31;;;2.87;84.76
56182;BME280;51963;46.052;14.544;2023-01-29T12:54:12;99005.06;;;3.02;84.02
56182;BME280;51963;46.052;14.544;2023-01-29T12:56:45;98996.09;;;3.16;83.50
56182;BME280;51963;46.052;14.544;2023-01-29T12:59:20;98992.75;;;3.14;79.84
56182;BME280;51963;46.052;14.544;2023-01-29T13:01:49;98994.19;;;3.18;79.99
56182;BME280;51963;46.052;14.544;2023-01-29T13:04:24;98990.25;;;3.45;79.82
56182;BME280;51963;46.052;14.544;2023-01-29T13:06:54;98994.06;;;3.41;80.29
56182;BME280;51963;46.052;14.544;2023-01-29T13:09:27;98990.50;;;3.42;79.13
56182;BME280;51963;46.052;14.544;2023-01-29T13:12:10;98992.44;;;3.61;77.29
56182;BME280;51963;46.052;14.544;2023-01-29T13:17:13;99001.50;;;3.57;78.52
56182;BME280;51963;46.052;14.544;2023-01-29T13:19:41;99007.44;;;3.59;77.01
56182;BME280;51963;46.052;14.544;2023-01-29T13:22:28;99010.84;;;3.59;77.32
56182;BME280;51963;46.052;14.544;2023-01-29T13:24:56;99009.19;;;3.58;77.90
56182;BME280;51963;46.052;14.544;2023-01-29T13:27:25;99005.38;;;3.62;76.85
56182;BME280;51963;46.052;14.544;2023-01-29T13:29:52;99000.19;;;3.51;78.16
56182;BME280;51963;46.052;14.544;2023-01-29T13:32:22;98984.84;;;3.58;76.81
56182;BME280;51963;46.052;14.544;2023-01-29T13:34:49;98966.72;;;3.45;76.92
56182;BME280;51963;46.052;14.544;2023-01-29T13:37:17;98964.50;;;3.61;76.55
56182;BME280;51963;46.052;14.544;2023-01-29T13:39:45;98964.31;;;3.53;78.08
56182;BME280;51963;46.052;14.544;2023-01-29T13:42:55;98978.00;;;3.66;78.42
56182;BME280;51963;46.052;14.544;2023-01-29T13:45:02;98979.94;;;3.64;76.60
56182;BME280;51963;46.052;14.544;2023-01-29T13:47:31;98982.09;;;3.59;77.90
56182;BME280;51963;46.052;14.544;2023-01-29T13:54:56;98982.28;;;3.46;76.47
56182;BME280;51963;46.052;14.544;2023-01-29T13:57:33;98982.59;;;3.32;77.26
56182;BME280;51963;46.052;14.544;2023-01-29T13:59:59;98973.06;;;3.42;75.79
56182;BME280;51963;46.052;14.544;2023-01-29T14:02:25;98971.75;;;3.36;76.84
56182;BME280;51963;46.052;14.544;2023-01-29T14:05:31;98958.44;;;3.40;76.86
56182;BME280;51963;46.052;14.544;2023-01-29T14:10:13;98961.56;;;3.33;76.70
56182;BME280;51963;46.052;14.544;2023-01-29T14:12:39;98957.59;;;3.18;76.98
56182;BME280;51963;46.052;14.544;2023-01-29T14:15:15;98956.53;;;3.20;77.10
56182;BME280;51963;46.052;14.544;2023-01-29T14:20:19;98951.22;;;3.11;78.21
56182;BME280;51963;46.052;14.544;2023-01-29T14:22:54;98953.72;;;3.12;77.61
56182;BME280;51963;46.052;14.544;2023-01-29T14:25:21;98963.72;;;3.07;76.66
56182;BME280;51963;46.052;14.544;2023-01-29T14:27:51;98955.03;;;3.06;77.75
56182;BME280;51963;46.052;14.544;2023-01-29T14:30:17;98949.81;;;3.06;77.91
56182;BME280;51963;46.052;14.544;2023-01-29T14:32:46;98944.56;;;3.06;78.98
56182;BME280;51963;46.052;14.544;2023-01-29T14:35:20;98950.19;;;3.23;77.45
56182;BME280;51963;46.052;14.544;2023-01-29T14:37:47;98947.22;;;3.28;76.26
56182;BME280;51963;46.052;14.544;2023-01-29T14:45:24;98940.19;;;3.07;76.95
56182;BME280;51963;46.052;14.544;2023-01-29T14:47:51;98944.25;;;3.00;77.15
56182;BME280;51963;46.052;14.544;2023-01-29T14:52:53;98945.16;;;2.77;77.39
56182;BME280;51963;46.052;14.544;2023-01-29T14:55:30;98957.53;;;2.64;77.94
56182;BME280;51963;46.052;14.544;2023-01-29T14:58:00;98949.47;;;2.56;78.84
56182;BME280;51963;46.052;14.544;2023-01-29T15:00:28;98951.84;;;2.59;79.06
56182;BME280;51963;46.052;14.544;2023-01-29T15:02:54;98941.19;;;2.51;79.21
56182;BME280;51963;46.052;14.544;2023-01-29T15:05:41;98941.44;;;2.47;80.14
56182;BME280;51963;46.052;14.544;2023-01-29T15:11:03;98953.78;;;2.34;80.40
56182;BME280;51963;46.052;14.544;2023-01-29T15:13:51;98946.75;;;2.46;80.39
56182;BME280;51963;46.052;14.544;2023-01-29T15:16:41;98944.00;;;2.70;78.68
56182;BME280;51963;46.052;14.544;2023-01-29T15:19:13;98945.78;;;2.70;78.83
56182;BME280;51963;46.052;14.544;2023-01-29T15:22:00;98950.13;;;2.81;77.69
56182;BME280;51963;46.052;14.544;2023-01-29T15:24:26;98953.19;;;2.86;77.43
56182;BME280;51963;46.052;14.544;2023-01-29T15:26:51;98948.72;;;2.76;78.22
56182;BME280;51963;46.052;14.544;2023-01-29T15:29:24;98956.34;;;2.68;79.33